Time;durP1;ratioP1;P1;durP2;ratioP2;P2;SDS_P1;SDS_P2;PMS_P1;PMS_P2;Temp;Humidity;BMP_temperature;BMP_pressure;BME280_temperature;BME280_humidity;BME280_pressure;Samples;Min_cycle;Max_cycle;Signal;HPM_P1;HPM_P2
2024/02/24 00:01:47;;;;;;;4.70;2.40;;;3.00;99.90;;;;;;5031769;28;20053;-51
2024/02/24 00:04:14;;;;;;;5.72;2.53;;;3.00;99.90;;;;;;5031931;28;20037;-45
2024/02/24 00:06:41;;;;;;;4.35;2.55;;;3.00;99.90;;;;;;5031047;28;20272;-51
2024/02/24 00:09:09;;;;;;;4.22;2.40;;;3.00;99.90;;;;;;5027123;28;20053;-48
2024/02/24 00:11:36;;;;;;;6.32;2.42;;;3.00;99.90;;;;;;5024876;28;20052;-47
2024/02/24 00:14:03;;;;;;;3.97;2.40;;;3.00;99.90;;;;;;5031814;28;20080;-51
2024/02/24 00:16:30;;;;;;;3.28;2.20;;;2.90;99.90;;;;;;5031792;28;20041;-46
2024/02/24 00:18:59;;;;;;;3.63;2.20;;;2.90;99.90;;;;;;5028930;28;20055;-54
2024/02/24 00:21:26;;;;;;;3.30;2.25;;;2.90;99.90;;;;;;5027291;28;20051;-47
2024/02/24 00:23:54;;;;;;;2.90;2.15;;;2.90;99.90;;;;;;5029005;28;20132;-44
2024/02/24 00:26:21;;;;;;;4.28;2.42;;;2.80;99.90;;;;;;5009553;28;20053;-48
2024/02/24 00:28:49;;;;;;;5.38;2.78;;;2.80;99.90;;;;;;5027634;28;20086;-47
2024/02/24 00:31:16;;;;;;;5.07;2.20;;;2.80;99.90;;;;;;5027209;28;20315;-42
2024/02/24 00:33:43;;;;;;;6.05;2.50;;;2.70;99.90;;;;;;5027898;28;20045;-49
2024/02/24 00:36:10;;;;;;;5.40;2.70;;;2.70;99.90;;;;;;5029922;28;20518;-46
2024/02/24 00:38:38;;;;;;;4.32;2.70;;;2.60;99.90;;;;;;5030903;28;20043;-48
2024/02/24 00:41:05;;;;;;;4.68;2.80;;;2.60;99.90;;;;;;5030110;28;20041;-47
2024/02/24 00:43:32;;;;;;;3.88;2.53;;;2.50;99.90;;;;;;5028695;28;20033;-48
2024/02/24 00:46:00;;;;;;;4.15;2.65;;;2.50;99.90;;;;;;5029269;28;20041;-49
2024/02/24 00:48:28;;;;;;;6.22;2.83;;;2.50;99.90;;;;;;5030688;28;20057;-41
2024/02/24 00:50:56;;;;;;;4.53;2.67;;;2.60;99.90;;;;;;5028587;28;20061;-44
2024/02/24 00:53:24;;;;;;;4.50;2.50;;;2.60;99.90;;;;;;5030571;28;20050;-53
2024/02/24 00:55:51;;;;;;;5.07;2.60;;;2.60;99.90;;;;;;5009174;28;20073;-44
2024/02/24 00:58:18;;;;;;;4.03;2.35;;;2.60;99.90;;;;;;5026843;28;20064;-42
2024/02/24 01:00:45;;;;;;;4.35;2.40;;;2.60;99.90;;;;;;5027235;28;20056;-47
2024/02/24 01:03:11;;;;;;;3.67;2.47;;;2.70;99.90;;;;;;5025701;28;20082;-43
2024/02/24 01:05:41;;;;;;;7.00;2.97;;;2.80;99.90;;;;;;5026664;28;20048;-49
2024/02/24 01:08:08;;;;;;;4.18;2.50;;;2.80;99.90;;;;;;5008610;28;20132;-54
2024/02/24 01:10:35;;;;;;;4.95;3.05;;;2.90;99.90;;;;;;5026392;28;20402;-48
2024/02/24 01:13:02;;;;;;;6.00;3.58;;;2.90;99.90;;;;;;5026707;28;20049;-46
2024/02/24 01:15:29;;;;;;;5.20;3.25;;;2.90;99.90;;;;;;5028131;28;20034;-44
2024/02/24 01:17:56;;;;;;;5.22;2.70;;;3.00;99.90;;;;;;5026601;28;20042;-46
2024/02/24 01:20:25;;;;;;;5.80;3.50;;;3.00;99.90;;;;;;5026713;28;20053;-50
2024/02/24 01:22:53;;;;;;;5.72;3.33;;;2.90;99.90;;;;;;5029961;28;20042;-44
2024/02/24 01:25:21;;;;;;;5.78;3.38;;;2.90;99.90;;;;;;5026585;28;20053;-43
2024/02/24 01:27:49;;;;;;;6.18;2.75;;;2.80;99.90;;;;;;5026784;28;20061;-42
2024/02/24 01:30:17;;;;;;;4.25;2.80;;;2.80;99.90;;;;;;5023681;28;20120;-45
2024/02/24 01:32:43;;;;;;;6.28;3.22;;;2.80;99.90;;;;;;5019410;28;20053;-51
2024/02/24 01:35:11;;;;;;;3.42;2.28;;;2.70;99.90;;;;;;5024530;28;20041;-44
2024/02/24 01:37:38;;;;;;;5.05;2.92;;;2.70;99.90;;;;;;5027569;28;20406;-48
2024/02/24 01:40:06;;;;;;;4.22;2.80;;;2.70;99.90;;;;;;5028083;28;20458;-49
2024/02/24 01:42:33;;;;;;;3.67;2.42;;;2.70;99.90;;;;;;5029267;28;20823;-51
2024/02/24 01:45:01;;;;;;;4.70;2.63;;;2.60;99.90;;;;;;5025117;28;20065;-49
2024/02/24 01:47:30;;;;;;;5.85;2.55;;;2.60;99.90;;;;;;5028787;28;20053;-44
2024/02/24 01:49:57;;;;;;;3.67;2.50;;;2.50;99.90;;;;;;5030294;28;20042;-47
2024/02/24 01:52:26;;;;;;;5.20;2.60;;;2.40;99.90;;;;;;5029490;28;20053;-51
2024/02/24 01:54:55;;;;;;;4.13;2.70;;;2.40;99.90;;;;;;5033734;28;20064;-44
2024/02/24 01:57:25;;;;;;;5.60;2.92;;;2.30;99.90;;;;;;5034267;28;20042;-51
2024/02/24 01:59:53;;;;;;;4.10;2.60;;;2.40;99.90;;;;;;5037565;28;20053;-51
2024/02/24 02:02:21;;;;;;;3.67;2.47;;;2.30;99.90;;;;;;5034557;28;20042;-47
2024/02/24 02:04:48;;;;;;;4.75;2.50;;;2.30;99.90;;;;;;5032878;28;20045;-50
2024/02/24 02:07:15;;;;;;;6.28;2.67;;;2.30;99.90;;;;;;5028961;28;20045;-47
2024/02/24 02:09:59;;;;;;;5.32;2.60;;;2.50;99.90;;;;;;5030448;28;20037;-47
2024/02/24 02:12:27;;;;;;;5.60;3.10;;;2.50;99.90;;;;;;5028434;28;20038;-51
2024/02/24 02:14:55;;;;;;;4.22;2.55;;;2.60;99.90;;;;;;5031330;28;20128;-47
2024/02/24 02:17:22;;;;;;;4.35;2.65;;;2.70;99.90;;;;;;5027764;28;20480;-47
2024/02/24 02:19:49;;;;;;;4.55;2.58;;;2.70;99.90;;;;;;5029862;28;20034;-48
2024/02/24 02:22:17;;;;;;;3.90;2.50;;;2.70;99.90;;;;;;5029175;28;20045;-50
2024/02/24 02:24:45;;;;;;;3.97;2.60;;;2.70;99.90;;;;;;5029244;28;20045;-50
2024/02/24 02:27:12;;;;;;;4.80;2.20;;;2.70;99.90;;;;;;5027072;28;20095;-45
2024/02/24 02:29:39;;;;;;;3.45;2.42;;;2.70;99.90;;;;;;5029373;28;20053;-49
2024/02/24 02:32:07;;;;;;;4.07;2.28;;;2.70;99.90;;;;;;5029972;28;20049;-47
2024/02/24 02:34:35;;;;;;;3.28;2.28;;;2.70;99.90;;;;;;5030381;28;20054;-49
2024/02/24 02:37:03;;;;;;;3.88;2.53;;;2.60;99.90;;;;;;5030714;28;20364;-44
2024/02/24 02:39:30;;;;;;;3.88;2.55;;;2.60;99.90;;;;;;5031138;28;20403;-45
2024/02/24 02:41:57;;;;;;;3.38;2.30;;;2.60;99.90;;;;;;5033085;28;20088;-46
2024/02/24 02:44:24;;;;;;;4.20;2.67;;;2.50;99.90;;;;;;5033614;28;20580;-46
2024/02/24 02:46:51;;;;;;;3.42;2.40;;;2.40;99.90;;;;;;5035186;28;20175;-46
2024/02/24 02:49:18;;;;;;;3.28;2.35;;;2.30;99.90;;;;;;5033742;28;20057;-48
2024/02/24 02:51:46;;;;;;;3.72;2.30;;;2.30;99.90;;;;;;5038916;28;20091;-49
2024/02/24 02:54:13;;;;;;;4.28;2.45;;;2.20;99.90;;;;;;5041329;28;20091;-45
2024/02/24 02:56:40;;;;;;;4.60;2.50;;;2.30;99.90;;;;;;5035395;28;20077;-50
2024/02/24 02:59:07;;;;;;;4.20;2.63;;;2.30;99.90;;;;;;5030046;28;20045;-45
2024/02/24 03:01:34;;;;;;;3.70;2.67;;;2.20;99.90;;;;;;5011912;28;20120;-51
2024/02/24 03:04:01;;;;;;;5.63;2.55;;;2.20;99.90;;;;;;5029141;28;20395;-51
2024/02/24 03:06:31;;;;;;;3.55;2.30;;;2.20;99.90;;;;;;5030530;28;20057;-50
2024/02/24 03:08:59;;;;;;;4.30;2.83;;;2.20;99.90;;;;;;5032115;28;20784;-45
2024/02/24 03:11:26;;;;;;;4.45;2.85;;;2.20;99.90;;;;;;5031956;28;20532;-44
2024/02/24 03:13:53;;;;;;;3.90;2.30;;;2.10;99.90;;;;;;5028255;28;20123;-46
2024/02/24 03:16:20;;;;;;;3.92;2.60;;;2.10;99.90;;;;;;5031177;28;20506;-47
2024/02/24 03:18:47;;;;;;;4.03;2.65;;;2.10;99.90;;;;;;5028242;28;20065;-45
2024/02/24 03:21:25;;;;;;;3.63;2.50;;;2.10;99.90;;;;;;5026073;28;20071;-46
2024/02/24 03:23:52;;;;;;;4.20;2.70;;;2.10;99.90;;;;;;5029029;28;20107;-51
2024/02/24 03:26:19;;;;;;;3.78;2.58;;;2.10;99.90;;;;;;5027945;28;20044;-45
2024/02/24 03:28:47;;;;;;;4.10;2.70;;;2.20;99.90;;;;;;5023836;28;20418;-50
2024/02/24 03:31:14;;;;;;;4.28;2.60;;;2.20;99.90;;;;;;5030125;28;20129;-48
2024/02/24 03:33:41;;;;;;;4.55;3.03;;;2.10;99.90;;;;;;5031425;28;20065;-51
2024/02/24 03:36:18;;;;;;;3.90;2.50;;;2.10;99.90;;;;;;5030647;28;20045;-47
2024/02/24 03:38:45;;;;;;;5.13;2.70;;;2.00;99.90;;;;;;5027713;28;20073;-50
2024/02/24 03:41:12;;;;;;;4.30;2.70;;;2.00;99.90;;;;;;5029580;28;20508;-51
2024/02/24 03:43:39;;;;;;;4.45;3.10;;;1.90;99.90;;;;;;5031982;28;20459;-56
2024/02/24 03:46:06;;;;;;;4.20;2.72;;;1.90;99.90;;;;;;5030491;28;20133;-47
2024/02/24 03:48:33;;;;;;;4.47;2.78;;;1.90;99.90;;;;;;5029514;28;20048;-55
2024/02/24 03:51:01;;;;;;;5.82;2.85;;;1.90;99.90;;;;;;5028761;28;20084;-46
2024/02/24 03:53:28;;;;;;;4.75;2.95;;;1.80;99.90;;;;;;5032283;28;20053;-45
2024/02/24 03:55:55;;;;;;;4.53;3.00;;;1.80;99.90;;;;;;5027605;28;20053;-47
2024/02/24 03:58:22;;;;;;;4.22;2.97;;;1.80;99.90;;;;;;5026742;28;20052;-46
2024/02/24 04:00:50;;;;;;;4.63;2.90;;;1.80;99.90;;;;;;5010802;28;20038;-48
2024/02/24 04:03:18;;;;;;;4.20;2.80;;;1.80;99.90;;;;;;5028382;28;20042;-47
2024/02/24 04:05:48;;;;;;;4.57;3.30;;;1.80;99.90;;;;;;5027244;28;20438;-46
2024/02/24 04:08:16;;;;;;;4.50;2.90;;;1.80;99.90;;;;;;5025098;28;20055;-52
2024/02/24 04:10:44;;;;;;;4.68;3.22;;;1.80;99.90;;;;;;5027684;28;20099;-46
2024/02/24 04:13:11;;;;;;;3.92;2.85;;;1.80;99.90;;;;;;5027682;28;20554;-44
2024/02/24 04:15:46;;;;;;;5.07;3.00;;;1.80;99.90;;;;;;5023899;28;20045;-48
2024/02/24 04:18:13;;;;;;;4.38;3.00;;;1.80;99.90;;;;;;5026304;28;20042;-43
2024/02/24 04:20:41;;;;;;;5.10;2.90;;;1.80;99.90;;;;;;5026903;28;20041;-44
2024/02/24 04:23:08;;;;;;;5.90;2.70;;;1.80;99.90;;;;;;5026923;28;20534;-47
2024/02/24 04:25:35;;;;;;;5.05;2.80;;;1.70;99.90;;;;;;5028020;28;20191;-45
2024/02/24 04:28:02;;;;;;;4.68;2.65;;;1.70;99.90;;;;;;5028262;28;20063;-44
2024/02/24 04:30:29;;;;;;;5.13;3.03;;;1.70;99.90;;;;;;5026585;28;20068;-47
2024/02/24 04:32:56;;;;;;;6.90;4.20;;;1.70;99.90;;;;;;5026858;28;20130;-50
2024/02/24 04:35:23;;;;;;;8.30;4.22;;;1.70;99.90;;;;;;5026566;28;20037;-48
2024/02/24 04:37:50;;;;;;;5.40;3.90;;;1.70;99.90;;;;;;5028170;28;20046;-52
2024/02/24 04:40:19;;;;;;;6.65;4.03;;;1.70;99.90;;;;;;5024755;28;20037;-45
2024/02/24 04:42:46;;;;;;;5.50;3.60;;;1.60;99.90;;;;;;5027071;28;20459;-49
2024/02/24 04:45:13;;;;;;;4.75;3.22;;;1.60;99.90;;;;;;5025042;28;20065;-46
2024/02/24 04:47:40;;;;;;;6.03;3.20;;;1.60;99.90;;;;;;5027877;28;20037;-49
2024/02/24 04:50:08;;;;;;;4.72;3.15;;;1.60;99.90;;;;;;5026522;28;20073;-50
2024/02/24 04:52:35;;;;;;;4.47;3.17;;;1.70;99.90;;;;;;5027849;28;20053;-52
2024/02/24 04:55:03;;;;;;;4.40;2.78;;;1.70;99.90;;;;;;5029075;28;20070;-52
2024/02/24 04:57:30;;;;;;;6.45;3.22;;;1.70;99.90;;;;;;5025783;28;20187;-49
2024/02/24 04:59:57;;;;;;;5.28;2.90;;;1.70;99.90;;;;;;5025666;28;20498;-49
2024/02/24 05:02:24;;;;;;;4.75;3.13;;;1.70;99.90;;;;;;5027149;28;20749;-45
2024/02/24 05:04:52;;;;;;;3.78;2.83;;;1.70;99.90;;;;;;5021169;28;20069;-46
2024/02/24 05:07:19;;;;;;;5.07;3.45;;;1.70;99.90;;;;;;5025260;28;20045;-49
2024/02/24 05:09:46;;;;;;;7.45;3.20;;;1.70;99.90;;;;;;5025725;28;20060;-47
2024/02/24 05:12:13;;;;;;;5.45;3.15;;;1.80;99.90;;;;;;5027178;28;20484;-48
2024/02/24 05:14:40;;;;;;;5.43;3.13;;;1.80;99.90;;;;;;5029870;28;20077;-45
2024/02/24 05:17:07;;;;;;;5.63;3.38;;;1.80;99.90;;;;;;5030225;28;20563;-46
2024/02/24 05:19:35;;;;;;;5.38;3.10;;;1.70;99.90;;;;;;5023583;28;20102;-50
2024/02/24 05:22:02;;;;;;;3.90;3.00;;;1.70;99.90;;;;;;5029703;28;20047;-52
2024/02/24 05:24:29;;;;;;;5.90;3.65;;;1.70;99.90;;;;;;5028977;28;20049;-49
2024/02/24 05:26:56;;;;;;;6.90;3.70;;;1.70;99.90;;;;;;5030915;28;20034;-48
2024/02/24 05:29:23;;;;;;;5.13;3.53;;;1.70;99.90;;;;;;5031808;28;20356;-46
2024/02/24 05:31:50;;;;;;;6.40;3.35;;;1.70;99.90;;;;;;5034526;28;20420;-43
2024/02/24 05:34:16;;;;;;;5.55;3.63;;;1.80;99.90;;;;;;5033210;28;20046;-44
2024/02/24 05:36:44;;;;;;;6.30;4.05;;;1.80;99.90;;;;;;5022958;28;20065;-46
2024/02/24 05:39:12;;;;;;;4.60;3.30;;;1.70;99.90;;;;;;5029411;28;20100;-50
2024/02/24 05:41:39;;;;;;;5.05;3.40;;;1.70;99.90;;;;;;5024782;28;20045;-49
2024/02/24 05:44:06;;;;;;;4.93;3.33;;;1.70;99.90;;;;;;5030081;28;20048;-46
2024/02/24 05:46:33;;;;;;;5.38;3.08;;;1.70;99.90;;;;;;5029908;28;20461;-49
2024/02/24 05:49:00;;;;;;;5.82;3.47;;;1.70;99.90;;;;;;5028531;28;20075;-46
2024/02/24 05:51:27;;;;;;;5.25;3.42;;;1.70;99.90;;;;;;5028499;28;20116;-46
2024/02/24 05:53:55;;;;;;;5.63;3.58;;;1.70;99.90;;;;;;5034700;28;20494;-43
2024/02/24 05:56:22;;;;;;;5.43;3.67;;;1.70;99.90;;;;;;5029123;28;20557;-46
2024/02/24 05:58:49;;;;;;;6.10;4.00;;;1.70;99.90;;;;;;5029388;28;20037;-48
2024/02/24 06:01:16;;;;;;;5.50;3.83;;;1.70;99.90;;;;;;5027197;28;20411;-45
2024/02/24 06:03:43;;;;;;;7.97;4.25;;;1.70;99.90;;;;;;5024917;28;20033;-51
2024/02/24 06:06:10;;;;;;;7.13;4.78;;;1.70;99.90;;;;;;5028257;28;20049;-49
2024/02/24 06:08:37;;;;;;;9.23;4.65;;;1.70;99.90;;;;;;5027931;28;20536;-46
2024/02/24 06:11:04;;;;;;;6.50;4.13;;;1.80;99.90;;;;;;5029388;28;20087;-53
2024/02/24 06:13:31;;;;;;;6.57;4.00;;;1.80;99.90;;;;;;5029779;28;20041;-53
2024/02/24 06:15:58;;;;;;;7.13;4.47;;;2.00;99.90;;;;;;5032989;28;20045;-43
2024/02/24 06:18:25;;;;;;;5.95;4.55;;;2.00;99.90;;;;;;5031643;28;20068;-49
2024/02/24 06:20:52;;;;;;;6.82;3.83;;;2.10;99.90;;;;;;5030714;28;20439;-42
2024/02/24 06:23:20;;;;;;;7.03;3.85;;;2.20;99.90;;;;;;5030804;28;20033;-53
2024/02/24 06:25:47;;;;;;;6.38;4.22;;;2.30;99.90;;;;;;5032502;28;20466;-50
2024/02/24 06:28:14;;;;;;;5.68;3.80;;;2.30;99.90;;;;;;5029809;28;20045;-48
2024/02/24 06:30:41;;;;;;;7.97;3.75;;;2.40;99.90;;;;;;5028005;28;20101;-45
2024/02/24 06:33:09;;;;;;;5.68;3.80;;;2.40;99.90;;;;;;5029722;28;20063;-47
2024/02/24 06:35:36;;;;;;;6.38;3.58;;;2.40;99.90;;;;;;5028497;28;20069;-49
2024/02/24 06:38:06;;;;;;;6.25;4.00;;;2.50;99.90;;;;;;5022843;28;20148;-44
2024/02/24 06:40:33;;;;;;;5.97;3.58;;;2.50;99.90;;;;;;5028142;28;21020;-50
2024/02/24 06:43:12;;;;;;;5.97;3.70;;;2.50;99.90;;;;;;5027911;28;20045;-47
2024/02/24 06:45:39;;;;;;;5.15;3.88;;;2.60;99.90;;;;;;5028238;28;20042;-52
2024/02/24 06:48:06;;;;;;;5.18;3.80;;;2.60;99.90;;;;;;5031013;28;20107;-45
2024/02/24 06:50:34;;;;;;;5.75;3.63;;;2.60;99.90;;;;;;5027663;28;20445;-51
2024/02/24 06:53:01;;;;;;;5.70;3.75;;;2.70;99.90;;;;;;5032001;28;20120;-49
2024/02/24 06:55:28;;;;;;;5.07;3.67;;;2.80;99.90;;;;;;5030810;28;20060;-50
2024/02/24 06:57:55;;;;;;;7.07;4.38;;;2.80;99.90;;;;;;5031330;28;20164;-50
2024/02/24 07:00:23;;;;;;;6.40;4.28;;;2.90;99.90;;;;;;5028974;28;20072;-49
2024/02/24 07:02:50;;;;;;;7.68;5.13;;;2.90;99.90;;;;;;5029240;28;20048;-48
2024/02/24 07:05:18;;;;;;;9.20;5.70;;;3.00;99.90;;;;;;5027909;28;20044;-46
2024/02/24 07:07:45;;;;;;;8.50;4.22;;;3.10;99.90;;;;;;5023911;28;20120;-45
2024/02/24 07:10:12;;;;;;;6.95;4.88;;;3.20;99.90;;;;;;5029930;28;20041;-44
2024/02/24 07:12:39;;;;;;;6.90;4.10;;;3.30;99.90;;;;;;5027551;28;20294;-49
2024/02/24 07:15:11;;;;;;;9.25;4.63;;;3.30;99.90;;;;;;5032785;28;20045;-45
2024/02/24 07:17:38;;;;;;;6.63;4.32;;;3.40;99.90;;;;;;5031155;28;20068;-50
2024/02/24 07:20:06;;;;;;;6.93;4.40;;;3.50;99.90;;;;;;5034165;28;20080;-47
2024/02/24 07:22:33;;;;;;;6.50;4.50;;;3.50;99.90;;;;;;5033788;28;20143;-48
2024/02/24 07:25:00;;;;;;;6.70;4.32;;;3.50;99.90;;;;;;5017200;28;20057;-48
2024/02/24 07:27:27;;;;;;;7.82;4.80;;;3.70;99.90;;;;;;5032480;28;20041;-43
2024/02/24 07:29:54;;;;;;;7.32;4.13;;;3.80;99.90;;;;;;5032962;28;20049;-50
2024/02/24 07:32:21;;;;;;;6.72;4.05;;;3.90;99.90;;;;;;5027314;28;20057;-49
2024/02/24 07:34:48;;;;;;;7.95;4.97;;;3.90;99.90;;;;;;5029325;28;20053;-45
2024/02/24 07:37:16;;;;;;;9.77;5.18;;;3.90;99.90;;;;;;5030138;28;20487;-44
2024/02/24 07:39:43;;;;;;;6.82;4.63;;;3.90;99.90;;;;;;5029403;28;20041;-49
2024/02/24 07:42:10;;;;;;;6.13;4.13;;;4.00;99.90;;;;;;5028617;28;20414;-47
2024/02/24 07:44:38;;;;;;;9.75;4.70;;;4.00;99.90;;;;;;5027698;28;20042;-46
2024/02/24 07:47:07;;;;;;;7.00;4.45;;;4.00;99.90;;;;;;5029100;28;20156;-47
2024/02/24 07:49:35;;;;;;;9.13;4.63;;;4.10;99.90;;;;;;5027574;28;20045;-51
2024/02/24 07:52:04;;;;;;;10.93;5.95;;;4.20;99.90;;;;;;5027641;28;20586;-47
2024/02/24 07:54:30;;;;;;;8.52;5.65;;;4.20;99.90;;;;;;5028616;28;20498;-47
2024/02/24 07:56:57;;;;;;;7.28;4.80;;;4.30;99.90;;;;;;5029093;28;20111;-45
2024/02/24 07:59:24;;;;;;;6.13;4.22;;;4.40;99.90;;;;;;5028268;28;20038;-53
2024/02/24 08:01:51;;;;;;;5.70;4.07;;;4.60;99.90;;;;;;5028825;28;20124;-47
2024/02/24 08:04:20;;;;;;;7.35;4.45;;;4.70;99.90;;;;;;5027399;28;20554;-47
2024/02/24 08:06:47;;;;;;;7.88;4.95;;;4.90;99.90;;;;;;5028528;28;20127;-48
2024/02/24 08:09:14;;;;;;;7.88;4.95;;;5.20;99.90;;;;;;5027593;28;20095;-55
2024/02/24 08:11:41;;;;;;;7.22;5.00;;;5.50;99.90;;;;;;5024770;28;20510;-49
2024/02/24 08:14:09;;;;;;;10.35;4.88;;;5.80;99.90;;;;;;5022472;28;20109;-52
2024/02/24 08:16:36;;;;;;;9.18;5.28;;;5.90;99.90;;;;;;5029749;28;20041;-46
2024/02/24 08:19:05;;;;;;;10.00;5.50;;;6.10;99.90;;;;;;5026367;28;20601;-48
2024/02/24 08:21:36;;;;;;;6.22;4.18;;;6.30;99.90;;;;;;5026084;28;20049;-46
2024/02/24 08:24:10;;;;;;;7.25;4.65;;;6.20;99.90;;;;;;5022773;28;20455;-49
2024/02/24 08:26:39;;;;;;;8.07;4.88;;;6.20;99.90;;;;;;5021488;28;20045;-43
2024/02/24 08:29:09;;;;;;;10.75;7.13;;;6.40;99.90;;;;;;5024973;28;20103;-48
2024/02/24 08:31:38;;;;;;;7.65;5.00;;;6.30;99.90;;;;;;5015995;28;20053;-52
2024/02/24 08:34:05;;;;;;;7.30;4.65;;;6.20;99.90;;;;;;5030835;28;20042;-52
2024/02/24 08:36:32;;;;;;;6.88;4.72;;;6.30;99.90;;;;;;5026183;28;20052;-48
2024/02/24 08:39:00;;;;;;;5.28;3.88;;;6.30;99.90;;;;;;5032453;28;20045;-51
2024/02/24 08:41:31;;;;;;;7.35;4.25;;;6.40;99.90;;;;;;5027772;28;20037;-42
2024/02/24 08:44:01;;;;;;;8.02;4.43;;;6.20;99.90;;;;;;5027456;28;20041;-49
2024/02/24 08:46:29;;;;;;;6.50;4.57;;;6.20;99.90;;;;;;5031762;28;20037;-52
2024/02/24 08:48:59;;;;;;;7.63;4.95;;;6.10;99.90;;;;;;5033998;28;20049;-45
2024/02/24 08:51:27;;;;;;;12.15;5.35;;;6.20;99.90;;;;;;5034167;28;20084;-42
2024/02/24 08:53:54;;;;;;;8.50;4.60;;;6.10;99.90;;;;;;5039129;28;20050;-42
2024/02/24 08:56:23;;;;;;;6.28;4.28;;;6.20;99.90;;;;;;5034813;28;20053;-43
2024/02/24 08:58:50;;;;;;;6.93;4.60;;;6.20;99.90;;;;;;5035795;28;20531;-46
2024/02/24 09:01:18;;;;;;;7.65;4.47;;;6.20;99.90;;;;;;5034994;28;20046;-50
2024/02/24 09:03:45;;;;;;;8.18;4.28;;;6.30;99.90;;;;;;5037478;28;20053;-48
2024/02/24 09:06:12;;;;;;;8.50;4.75;;;6.50;99.90;;;;;;5037897;28;20042;-47
2024/02/24 09:08:39;;;;;;;8.02;4.47;;;6.50;99.90;;;;;;5035324;28;20041;-45
2024/02/24 09:11:06;;;;;;;9.40;5.32;;;6.60;99.90;;;;;;5035044;28;20791;-43
2024/02/24 09:13:34;;;;;;;7.05;4.00;;;6.60;99.90;;;;;;5030434;28;20396;-42
2024/02/24 09:16:01;;;;;;;8.43;4.60;;;6.60;99.90;;;;;;5029016;28;20049;-44
2024/02/24 09:18:30;;;;;;;7.95;4.60;;;6.60;99.90;;;;;;5031935;28;20421;-46
2024/02/24 09:20:57;;;;;;;8.98;4.80;;;6.40;99.90;;;;;;5013913;28;20061;-48
2024/02/24 09:23:24;;;;;;;6.50;4.80;;;6.50;99.90;;;;;;5030612;28;20118;-49
2024/02/24 09:25:51;;;;;;;6.32;4.40;;;6.60;99.90;;;;;;5028255;28;20064;-49
2024/02/24 09:28:18;;;;;;;6.68;4.40;;;6.60;99.90;;;;;;5029188;28;20073;-47
2024/02/24 09:30:46;;;;;;;6.20;4.28;;;6.40;99.90;;;;;;5028726;28;20049;-50
2024/02/24 09:33:13;;;;;;;6.63;4.40;;;6.30;99.90;;;;;;5029742;28;20597;-50
2024/02/24 09:35:40;;;;;;;12.15;7.07;;;6.30;99.90;;;;;;5028653;28;20052;-46
2024/02/24 09:38:07;;;;;;;6.28;4.22;;;6.20;99.90;;;;;;5029520;28;20230;-43
2024/02/24 09:40:34;;;;;;;8.60;4.20;;;6.10;99.90;;;;;;5031712;28;20045;-49
2024/02/24 09:43:05;;;;;;;5.47;3.60;;;5.90;99.90;;;;;;5032269;28;20147;-49
2024/02/24 09:45:35;;;;;;;6.87;4.47;;;5.90;99.90;;;;;;5032963;28;20065;-45
2024/02/24 09:48:02;;;;;;;7.05;3.63;;;5.90;99.90;;;;;;5031283;28;20044;-46
2024/02/24 09:50:30;;;;;;;8.45;5.00;;;5.90;99.90;;;;;;5029106;28;20115;-52
2024/02/24 09:52:57;;;;;;;10.32;4.10;;;6.00;99.90;;;;;;5034912;28;20598;-48
2024/02/24 09:55:24;;;;;;;7.95;4.25;;;5.90;99.90;;;;;;5029714;28;20603;-53
2024/02/24 09:57:55;;;;;;;7.28;4.07;;;6.10;99.90;;;;;;5024821;28;20092;-45
2024/02/24 10:00:22;;;;;;;8.07;4.90;;;6.10;99.90;;;;;;5028851;28;20053;-45
2024/02/24 10:02:49;;;;;;;6.10;3.58;;;6.30;99.90;;;;;;5030469;28;20061;-49
2024/02/24 10:05:17;;;;;;;7.40;4.07;;;6.40;99.90;;;;;;5028655;28;20041;-49
2024/02/24 10:07:47;;;;;;;5.00;3.38;;;6.60;99.90;;;;;;5027433;28;20053;-49
2024/02/24 10:10:16;;;;;;;7.18;3.90;;;6.80;99.90;;;;;;5028909;28;20145;-50
2024/02/24 10:12:56;;;;;;;14.77;8.75;;;7.00;99.90;;;;;;5029042;28;20049;-47
2024/02/24 10:15:24;;;;;;;7.95;4.68;;;7.40;99.90;;;;;;5030770;28;20498;-49
2024/02/24 10:17:56;;;;;;;6.15;4.13;;;7.70;99.90;;;;;;5029598;28;20053;-47
2024/02/24 10:20:24;;;;;;;8.73;4.80;;;8.20;99.90;;;;;;5029899;28;20044;-45
2024/02/24 10:22:51;;;;;;;9.18;4.32;;;8.70;99.90;;;;;;5027543;28;20060;-50
2024/02/24 10:25:18;;;;;;;7.15;4.30;;;9.10;99.90;;;;;;5027957;28;20118;-46
2024/02/24 10:27:46;;;;;;;4.80;3.17;;;9.40;99.90;;;;;;5028019;28;20045;-52
2024/02/24 10:30:13;;;;;;;5.00;2.90;;;9.40;99.90;;;;;;5028430;28;20129;-47
2024/02/24 10:32:44;;;;;;;5.32;2.85;;;9.40;99.90;;;;;;5025598;28;20256;-50
2024/02/24 10:35:11;;;;;;;3.92;2.90;;;9.50;99.90;;;;;;5028210;28;20051;-44
2024/02/24 10:37:38;;;;;;;4.85;2.80;;;9.30;99.90;;;;;;5027111;28;20502;-48
2024/02/24 10:40:25;;;;;;;4.07;3.20;;;9.30;99.90;;;;;;5026289;28;20045;-52
2024/02/24 10:42:54;;;;;;;4.05;2.50;;;8.80;99.90;;;;;;5027374;28;20124;-49
2024/02/24 10:45:22;;;;;;;6.05;3.13;;;8.70;99.90;;;;;;5031170;28;20453;-49
2024/02/24 10:47:49;;;;;;;4.45;2.92;;;9.00;99.90;;;;;;5030697;28;20053;-50
2024/02/24 10:50:19;;;;;;;4.53;3.08;;;9.00;99.90;;;;;;5028964;28;20466;-44
2024/02/24 10:52:48;;;;;;;4.13;2.80;;;9.20;99.90;;;;;;5031676;28;20044;-51
2024/02/24 10:55:21;;;;;;;4.15;2.70;;;9.30;99.90;;;;;;5025330;28;20064;-50
2024/02/24 10:57:52;;;;;;;4.03;2.60;;;9.10;99.90;;;;;;5028124;28;20088;-48
2024/02/24 11:00:31;;;;;;;4.20;2.90;;;9.00;99.90;;;;;;5027423;28;20103;-50
2024/02/24 11:02:59;;;;;;;4.10;2.70;;;8.70;99.90;;;;;;5024995;28;20042;-50
2024/02/24 11:05:30;;;;;;;3.83;2.75;;;8.80;99.90;;;;;;5028203;28;20099;-49
2024/02/24 11:07:58;;;;;;;4.40;2.70;;;9.10;99.90;;;;;;5027882;28;20148;-49
2024/02/24 11:10:33;;;;;;;3.63;2.65;;;9.30;99.90;;;;;;5026455;28;20047;-46
2024/02/24 11:13:01;;;;;;;5.30;3.08;;;9.40;99.90;;;;;;5027650;28;20052;-49
2024/02/24 11:15:29;;;;;;;5.20;2.60;;;9.60;99.90;;;;;;5029161;28;20053;-48
2024/02/24 11:17:57;;;;;;;3.72;2.45;;;9.60;99.90;;;;;;5023636;28;20052;-47
2024/02/24 11:20:42;;;;;;;3.45;2.60;;;9.70;99.90;;;;;;5027922;28;20045;-47
2024/02/24 11:23:23;;;;;;;4.55;3.03;;;9.70;99.90;;;;;;5026750;28;20406;-43
2024/02/24 11:26:08;;;;;;;4.55;3.08;;;10.10;99.90;;;;;;5026795;28;20068;-48
2024/02/24 11:28:36;;;;;;;3.53;2.90;;;10.30;99.90;;;;;;5027122;28;20044;-48
2024/02/24 11:31:04;;;;;;;3.22;2.70;;;9.90;99.90;;;;;;5024406;28;20053;-48
2024/02/24 11:33:37;;;;;;;4.57;2.80;;;9.40;99.90;;;;;;5026231;28;20037;-43
2024/02/24 11:36:05;;;;;;;4.22;3.10;;;9.20;99.90;;;;;;5028605;28;20040;-45
2024/02/24 11:38:33;;;;;;;5.55;2.85;;;9.30;99.90;;;;;;5027029;28;20054;-45
2024/02/24 11:41:04;;;;;;;4.55;2.90;;;9.60;99.90;;;;;;5010252;28;20049;-47
2024/02/24 11:43:32;;;;;;;5.90;2.65;;;10.10;99.90;;;;;;5026553;28;20038;-46
2024/02/24 11:45:59;;;;;;;3.10;2.50;;;10.80;99.90;;;;;;5028770;28;20050;-48
2024/02/24 11:48:26;;;;;;;3.22;2.53;;;11.10;99.90;;;;;;5028168;28;20030;-43
2024/02/24 11:50:54;;;;;;;3.80;3.05;;;11.40;99.90;;;;;;5027388;28;20048;-51
2024/02/24 11:53:21;;;;;;;4.03;2.90;;;12.00;99.90;;;;;;5027974;28;20522;-48
2024/02/24 11:55:48;;;;;;;3.70;3.00;;;12.20;99.90;;;;;;5023857;28;20095;-47
2024/02/24 11:58:17;;;;;;;4.00;2.80;;;12.40;99.90;;;;;;5024002;28;20119;-45
2024/02/24 12:00:44;;;;;;;4.30;3.00;;;12.40;99.90;;;;;;5025675;28;20041;-51
2024/02/24 12:03:13;;;;;;;3.90;2.67;;;13.00;99.90;;;;;;5026685;28;20482;-45
2024/02/24 12:05:41;;;;;;;4.30;3.00;;;14.10;99.90;;;;;;5021173;28;20068;-43
2024/02/24 12:08:17;;;;;;;3.42;3.03;;;13.90;99.90;;;;;;5025549;28;20048;-47
2024/02/24 12:10:45;;;;;;;4.38;3.20;;;13.80;99.90;;;;;;5019122;28;20132;-44
2024/02/24 12:13:13;;;;;;;3.42;3.13;;;13.40;99.90;;;;;;5026898;28;20051;-46
2024/02/24 12:15:44;;;;;;;2.80;2.60;;;13.20;99.90;;;;;;5027833;28;20060;-50
2024/02/24 12:18:12;;;;;;;5.53;2.60;;;13.20;99.90;;;;;;5026651;28;20152;-44
2024/02/24 12:20:41;;;;;;;3.30;2.88;;;13.10;99.90;;;;;;5026263;28;20046;-49
2024/02/24 12:23:09;;;;;;;3.10;2.80;;;13.30;99.90;;;;;;5027896;28;20041;-47
2024/02/24 12:25:36;;;;;;;2.88;2.58;;;13.50;99.90;;;;;;5026299;28;20079;-46
2024/02/24 12:28:04;;;;;;;3.00;2.63;;;12.80;99.90;;;;;;5027030;28;20061;-46
2024/02/24 12:30:35;;;;;;;3.00;2.70;;;12.50;99.90;;;;;;5026833;28;20323;-45
2024/02/24 12:33:03;;;;;;;3.40;2.90;;;12.60;99.90;;;;;;5026795;28;20549;-52
2024/02/24 12:35:31;;;;;;;3.45;2.50;;;13.00;99.90;;;;;;5026326;28;20084;-52
2024/02/24 12:37:58;;;;;;;2.75;2.55;;;13.70;99.90;;;;;;5029218;28;20445;-44
2024/02/24 12:40:32;;;;;;;2.70;2.50;;;13.70;99.90;;;;;;5023014;28;20056;-50
2024/02/24 12:43:01;;;;;;;3.08;2.78;;;13.90;99.90;;;;;;5027647;28;20379;-50
2024/02/24 12:45:28;;;;;;;4.15;2.95;;;14.40;99.90;;;;;;5026899;28;20537;-49
2024/02/24 12:47:55;;;;;;;3.33;2.80;;;14.90;99.90;;;;;;5008665;28;20281;-46
2024/02/24 12:50:24;;;;;;;3.78;2.78;;;15.80;99.90;;;;;;5024404;28;20144;-46
2024/02/24 12:52:55;;;;;;;3.47;3.17;;;16.30;98.40;;;;;;5028989;28;20068;-48
2024/02/24 12:55:22;;;;;;;3.20;2.90;;;17.10;96.00;;;;;;5026349;28;20088;-49
2024/02/24 12:57:49;;;;;;;3.45;3.15;;;16.80;93.90;;;;;;5026601;28;20076;-46
2024/02/24 13:00:16;;;;;;;3.40;3.10;;;16.90;92.90;;;;;;5027596;28;20487;-51